Time;durP1;ratioP1;P1;durP2;ratioP2;P2;SDS_P1;SDS_P2;PMS_P1;PMS_P2;Temp;Humidity;BMP_temperature;BMP_pressure;BME280_temperature;BME280_humidity;BME280_pressure;Samples;Min_cycle;Max_cycle;Signal;HPM_P1;HPM_P2
2022/03/27 00:01:32;;;;;;;1.35;0.98;;;5.30;99.90;;;;;;5110928;28;20131;-69
2022/03/27 00:03:58;;;;;;;1.02;0.80;;;5.40;99.90;;;;;;5111080;28;20027;-69
2022/03/27 00:06:24;;;;;;;1.00;0.80;;;5.40;99.90;;;;;;5116581;27;20541;-69
2022/03/27 00:08:50;;;;;;;1.42;0.90;;;5.50;99.90;;;;;;5114296;27;20043;-69
2022/03/27 00:11:25;;;;;;;1.25;0.80;;;5.60;99.90;;;;;;5113933;27;20043;-69
2022/03/27 00:13:55;;;;;;;2.25;0.90;;;5.60;99.90;;;;;;5096908;27;20069;-68
2022/03/27 00:16:23;;;;;;;1.35;1.00;;;5.70;99.90;;;;;;5132573;27;20089;-69
2022/03/27 00:18:48;;;;;;;1.95;1.08;;;5.70;99.90;;;;;;5113439;27;20122;-70
2022/03/27 00:21:14;;;;;;;1.60;1.23;;;5.70;99.90;;;;;;5113642;27;20122;-70
2022/03/27 00:23:40;;;;;;;2.13;1.30;;;5.70;99.90;;;;;;5113848;27;20523;-70
2022/03/27 00:26:07;;;;;;;2.17;1.00;;;5.80;99.90;;;;;;5114603;27;20043;-69
2022/03/27 00:28:33;;;;;;;3.40;1.33;;;5.80;99.90;;;;;;5113454;27;20068;-70
2022/03/27 00:31:04;;;;;;;1.75;1.10;;;5.80;99.90;;;;;;5080899;27;20057;-70
2022/03/27 00:33:31;;;;;;;1.20;0.80;;;5.80;99.90;;;;;;5114091;27;20505;-70
2022/03/27 00:35:57;;;;;;;;;;;5.90;99.90;;;;;;5113933;27;20114;-70
2022/03/27 00:38:23;;;;;;;1.63;1.00;;;5.90;99.90;;;;;;5113874;27;20029;-70
2022/03/27 00:40:52;;;;;;;1.83;0.93;;;5.90;99.90;;;;;;5113192;27;20049;-70
2022/03/27 00:43:19;;;;;;;1.20;0.90;;;6.00;99.90;;;;;;5110501;27;20439;-69
2022/03/27 00:45:46;;;;;;;2.58;0.93;;;5.90;99.90;;;;;;5113343;27;20039;-69
2022/03/27 00:48:15;;;;;;;1.15;0.80;;;6.00;99.90;;;;;;5113391;27;20047;-70
2022/03/27 00:50:41;;;;;;;1.23;0.77;;;6.10;99.90;;;;;;5113564;27;20074;-70
2022/03/27 00:53:08;;;;;;;1.27;0.90;;;6.00;99.90;;;;;;5113186;27;20532;-70
2022/03/27 00:55:34;;;;;;;2.63;1.30;;;6.10;99.90;;;;;;5113165;27;20086;-70
2022/03/27 00:58:01;;;;;;;3.90;1.50;;;6.00;99.90;;;;;;5130700;27;20039;-70
2022/03/27 01:00:38;;;;;;;2.10;1.25;;;6.10;99.90;;;;;;5111829;27;20120;-70
2022/03/27 01:03:05;;;;;;;1.52;1.00;;;6.00;99.90;;;;;;5109659;27;20046;-69
2022/03/27 01:05:32;;;;;;;1.70;1.00;;;6.10;99.90;;;;;;5131708;27;20414;-70
2022/03/27 01:08:00;;;;;;;1.98;1.17;;;6.10;99.90;;;;;;5095153;27;20043;-69
2022/03/27 01:10:26;;;;;;;1.73;0.90;;;6.20;99.90;;;;;;5111345;27;20132;-69
2022/03/27 01:12:52;;;;;;;1.13;0.90;;;6.20;99.90;;;;;;5096112;27;20113;-69
2022/03/27 01:15:30;;;;;;;1.98;1.20;;;6.10;99.90;;;;;;5112477;27;20053;-69
2022/03/27 01:17:55;;;;;;;1.08;0.90;;;6.20;99.90;;;;;;5108751;27;20092;-68
2022/03/27 01:20:36;;;;;;;3.47;1.60;;;6.20;99.90;;;;;;5113097;27;20436;-70
2022/03/27 01:23:08;;;;;;;1.90;1.25;;;6.20;99.90;;;;;;5106520;27;20277;-69
2022/03/27 01:25:34;;;;;;;2.40;1.17;;;6.20;99.90;;;;;;5125318;27;20035;-69
2022/03/27 01:27:59;;;;;;;1.58;0.93;;;6.20;99.90;;;;;;5113094;27;20067;-69
2022/03/27 01:30:25;;;;;;;3.70;1.40;;;6.20;99.90;;;;;;5131632;27;20081;-69
2022/03/27 01:32:52;;;;;;;2.83;1.25;;;6.30;99.90;;;;;;5112173;27;20042;-69
2022/03/27 01:35:19;;;;;;;3.08;1.30;;;6.30;99.90;;;;;;5112137;27;20046;-70
2022/03/27 01:37:46;;;;;;;2.95;2.13;;;6.30;99.90;;;;;;5112405;27;20494;-69
2022/03/27 01:40:13;;;;;;;3.33;1.83;;;6.30;99.90;;;;;;5130749;27;20117;-69
2022/03/27 01:42:38;;;;;;;;;;;6.20;99.90;;;;;;5109239;27;20087;-70
2022/03/27 01:45:05;;;;;;;3.17;1.73;;;6.20;99.90;;;;;;5112379;27;19919;-70
2022/03/27 01:47:32;;;;;;;3.97;2.10;;;6.10;99.90;;;;;;5108660;27;20078;-70
2022/03/27 01:50:00;;;;;;;3.70;1.98;;;6.10;99.90;;;;;;5112053;27;20075;-70
2022/03/27 01:52:26;;;;;;;2.45;1.60;;;6.00;99.90;;;;;;5112322;27;20046;-70
2022/03/27 01:54:52;;;;;;;2.83;1.50;;;5.90;99.90;;;;;;5094663;27;20039;-70
2022/03/27 01:57:18;;;;;;;2.78;1.88;;;6.00;99.90;;;;;;5111746;27;20096;-70
2022/03/27 01:59:43;;;;;;;4.53;2.05;;;5.80;99.90;;;;;;5112152;28;20416;-71
2022/03/27 02:02:09;;;;;;;3.15;1.52;;;5.80;99.90;;;;;;5110568;27;20049;-70
2022/03/27 02:04:35;;;;;;;3.00;1.88;;;5.80;99.90;;;;;;5111190;28;20056;-70
2022/03/27 02:07:01;;;;;;;2.58;1.52;;;5.90;99.90;;;;;;5093442;27;20093;-69
2022/03/27 02:09:27;;;;;;;2.67;1.40;;;5.90;99.90;;;;;;5111735;28;20127;-70
2022/03/27 02:11:53;;;;;;;2.83;1.55;;;5.80;99.90;;;;;;5094831;28;20039;-70
2022/03/27 02:14:18;;;;;;;1.83;1.38;;;5.90;99.90;;;;;;5111896;28;20107;-70
2022/03/27 02:16:44;;;;;;;2.80;1.33;;;5.80;99.90;;;;;;5094967;28;20410;-70
2022/03/27 02:19:11;;;;;;;1.70;0.90;;;5.80;99.90;;;;;;5112065;28;20543;-70
2022/03/27 02:21:38;;;;;;;3.00;1.50;;;5.90;99.90;;;;;;5111925;28;20031;-70
2022/03/27 02:24:04;;;;;;;3.17;1.50;;;5.90;99.90;;;;;;5110341;28;20043;-69
2022/03/27 02:26:31;;;;;;;4.05;1.98;;;5.90;99.90;;;;;;5110636;28;20047;-69
2022/03/27 02:28:56;;;;;;;3.38;2.20;;;5.90;99.90;;;;;;5095555;28;20038;-70
2022/03/27 02:31:22;;;;;;;3.83;1.90;;;5.90;99.90;;;;;;5095616;28;20047;-70
2022/03/27 02:33:48;;;;;;;7.65;2.92;;;6.00;99.90;;;;;;5112171;28;20046;-70
2022/03/27 02:36:14;;;;;;;;;;;6.00;99.90;;;;;;5107809;28;20485;-70
2022/03/27 02:38:40;;;;;;;4.07;2.20;;;6.00;99.90;;;;;;5109445;28;19920;-70
2022/03/27 02:41:07;;;;;;;3.83;1.90;;;6.00;99.90;;;;;;5111267;28;20132;-69
2022/03/27 02:43:33;;;;;;;3.63;1.75;;;5.90;99.90;;;;;;5090745;28;20114;-70
2022/03/27 02:46:00;;;;;;;3.88;2.05;;;6.00;99.90;;;;;;5130409;28;20035;-70
2022/03/27 02:48:26;;;;;;;5.55;2.60;;;5.90;99.90;;;;;;5111960;28;20512;-70
2022/03/27 02:50:52;;;;;;;;;;;6.00;99.90;;;;;;5111662;28;20516;-70
2022/03/27 02:53:17;;;;;;;7.20;2.60;;;5.90;99.90;;;;;;5111676;28;19915;-70
2022/03/27 02:55:43;;;;;;;6.28;2.90;;;5.90;99.90;;;;;;5111873;28;20039;-70
2022/03/27 02:58:09;;;;;;;3.25;1.83;;;5.80;99.90;;;;;;5110686;28;20159;-70
2022/03/27 03:00:35;;;;;;;3.08;1.75;;;5.80;99.90;;;;;;5094372;28;20092;-71
2022/03/27 03:03:01;;;;;;;4.78;2.38;;;5.70;99.90;;;;;;5111526;28;20046;-70
2022/03/27 03:05:27;;;;;;;4.47;2.50;;;5.70;99.90;;;;;;5094062;28;20041;-70
2022/03/27 03:07:53;;;;;;;3.67;1.63;;;5.70;99.90;;;;;;5111784;28;20058;-70
2022/03/27 03:10:19;;;;;;;5.25;2.40;;;5.60;99.90;;;;;;5111253;28;20741;-70
2022/03/27 03:12:45;;;;;;;3.40;2.10;;;5.60;99.90;;;;;;5111460;28;20039;-69
2022/03/27 03:15:11;;;;;;;5.30;2.10;;;5.50;99.90;;;;;;5111496;28;20076;-70
2022/03/27 03:17:38;;;;;;;4.82;2.22;;;5.50;99.90;;;;;;5111301;28;20075;-70
2022/03/27 03:20:04;;;;;;;3.90;2.00;;;5.50;99.90;;;;;;5110432;28;20459;-70
2022/03/27 03:22:30;;;;;;;;;;;5.50;99.90;;;;;;5091240;28;20039;-70
2022/03/27 03:24:56;;;;;;;2.25;1.67;;;5.40;99.90;;;;;;5109087;27;19926;-70
2022/03/27 03:27:22;;;;;;;2.55;1.67;;;5.30;99.90;;;;;;5099035;27;20078;-70
2022/03/27 03:29:48;;;;;;;3.03;1.45;;;5.20;99.90;;;;;;5115558;27;20084;-70
2022/03/27 03:32:13;;;;;;;2.80;1.77;;;5.10;99.90;;;;;;5095422;27;20450;-71
2022/03/27 03:34:39;;;;;;;2.10;1.63;;;5.00;99.90;;;;;;5115171;27;20046;-70
2022/03/27 03:37:05;;;;;;;1.67;1.15;;;5.00;99.90;;;;;;5115387;27;20051;-70
2022/03/27 03:39:30;;;;;;;0.70;0.65;;;4.90;99.90;;;;;;5097065;27;20055;-70
2022/03/27 03:41:56;;;;;;;1.33;0.80;;;4.80;99.90;;;;;;5114759;27;20035;-71
2022/03/27 03:44:23;;;;;;;0.82;0.70;;;4.80;99.90;;;;;;5113638;27;20035;-70
2022/03/27 03:46:49;;;;;;;0.85;0.65;;;4.80;99.90;;;;;;5096329;27;20031;-70
2022/03/27 03:49:14;;;;;;;0.98;0.88;;;4.80;99.90;;;;;;5115071;27;20053;-70
2022/03/27 03:51:40;;;;;;;0.80;0.70;;;4.60;99.90;;;;;;5114808;27;20039;-78
2022/03/27 03:54:09;;;;;;;0.80;0.60;;;4.70;99.90;;;;;;5114551;27;20039;-78
2022/03/27 03:56:36;;;;;;;0.40;0.40;;;4.60;99.90;;;;;;5114583;27;20073;-78
2022/03/27 03:59:02;;;;;;;0.40;0.35;;;4.60;99.90;;;;;;5113972;27;20032;-78
2022/03/27 04:01:27;;;;;;;0.30;0.30;;;4.40;99.90;;;;;;5111424;27;20092;-78
2022/03/27 04:03:53;;;;;;;0.50;0.43;;;4.40;99.90;;;;;;5113501;27;20560;-77
2022/03/27 04:06:19;;;;;;;0.40;0.40;;;4.40;99.90;;;;;;5112732;27;20059;-77
2022/03/27 04:08:45;;;;;;;0.40;0.32;;;4.30;99.90;;;;;;5113916;27;20303;-78
2022/03/27 04:11:16;;;;;;;0.30;0.30;;;4.20;99.90;;;;;;5114528;27;20058;-77
2022/03/27 04:13:43;;;;;;;0.50;0.20;;;4.20;99.90;;;;;;5114027;27;20039;-79
2022/03/27 04:16:10;;;;;;;0.38;0.30;;;4.20;99.90;;;;;;5113738;27;20095;-77
2022/03/27 04:18:35;;;;;;;0.30;0.30;;;4.20;99.90;;;;;;5127855;27;20043;-77
2022/03/27 04:21:01;;;;;;;0.47;0.40;;;4.00;99.90;;;;;;5113837;27;20520;-77
2022/03/27 04:23:27;;;;;;;0.32;0.32;;;4.00;99.90;;;;;;5114736;27;20092;-78
2022/03/27 04:25:53;;;;;;;;;;;4.00;99.90;;;;;;5113684;27;20039;-77
2022/03/27 04:28:19;;;;;;;0.52;0.50;;;4.00;99.90;;;;;;5092147;27;20010;-77
2022/03/27 04:30:45;;;;;;;0.55;0.50;;;3.90;99.90;;;;;;5114140;27;20042;-77
2022/03/27 04:33:10;;;;;;;0.60;0.32;;;3.90;99.90;;;;;;5114121;27;20150;-77
2022/03/27 04:35:38;;;;;;;0.30;0.30;;;3.90;99.90;;;;;;5093282;27;20104;-77
2022/03/27 04:38:04;;;;;;;0.40;0.40;;;3.70;99.90;;;;;;5097056;27;20047;-77
2022/03/27 04:40:29;;;;;;;0.40;0.40;;;3.80;99.90;;;;;;5110474;27;20417;-77
2022/03/27 04:42:55;;;;;;;0.30;0.30;;;3.70;99.90;;;;;;5113084;27;20039;-78
2022/03/27 04:45:21;;;;;;;0.20;0.20;;;3.70;99.90;;;;;;5114070;27;20038;-77
2022/03/27 04:47:47;;;;;;;0.30;0.30;;;3.70;99.90;;;;;;5077195;27;20569;-77
2022/03/27 04:50:12;;;;;;;0.50;0.50;;;3.70;99.90;;;;;;5131788;27;20122;-78
2022/03/27 04:52:38;;;;;;;0.20;0.20;;;3.70;99.90;;;;;;5114055;27;20418;-78
2022/03/27 04:55:05;;;;;;;0.30;0.20;;;3.60;99.90;;;;;;5113437;27;20047;-78
2022/03/27 04:57:37;;;;;;;0.22;0.22;;;3.50;99.90;;;;;;5096252;27;20070;-76
2022/03/27 05:00:04;;;;;;;0.20;0.20;;;3.60;99.90;;;;;;5110202;27;20054;-77
2022/03/27 05:02:29;;;;;;;0.10;0.10;;;3.60;99.90;;;;;;5111950;27;20519;-77
2022/03/27 05:04:55;;;;;;;0.20;0.20;;;3.60;99.90;;;;;;5074730;28;20040;-78
2022/03/27 05:07:21;;;;;;;0.17;0.17;;;3.50;99.90;;;;;;5093015;27;20391;-78
2022/03/27 05:09:46;;;;;;;0.08;0.08;;;3.50;99.90;;;;;;5113271;27;20096;-79
2022/03/27 05:12:12;;;;;;;0.45;0.25;;;3.40;99.90;;;;;;5113099;27;20529;-78
2022/03/27 05:14:38;;;;;;;0.20;0.10;;;3.40;99.90;;;;;;5113107;27;20442;-78
2022/03/27 05:17:04;;;;;;;0.10;0.10;;;3.50;99.90;;;;;;5113407;27;20063;-78
2022/03/27 05:19:30;;;;;;;0.20;0.20;;;3.40;99.90;;;;;;5112245;27;20046;-77
2022/03/27 05:21:56;;;;;;;0.90;0.20;;;3.40;99.90;;;;;;5112537;27;20031;-78
2022/03/27 05:24:21;;;;;;;0.65;0.28;;;3.50;99.90;;;;;;5095608;27;20099;-77
2022/03/27 05:26:47;;;;;;;0.50;0.30;;;3.40;99.90;;;;;;5074483;28;20067;-78
2022/03/27 05:29:13;;;;;;;0.82;0.30;;;3.40;99.90;;;;;;5106690;27;20488;-78
2022/03/27 05:31:40;;;;;;;0.30;0.13;;;3.40;99.90;;;;;;5113392;27;20482;-78
2022/03/27 05:34:05;;;;;;;0.90;0.40;;;3.40;99.90;;;;;;5114062;27;20128;-78
2022/03/27 05:36:31;;;;;;;0.40;0.40;;;3.50;99.90;;;;;;5112059;27;20553;-70
2022/03/27 05:38:56;;;;;;;0.68;0.30;;;3.50;99.90;;;;;;5110685;27;20490;-72
2022/03/27 05:41:22;;;;;;;0.67;0.33;;;3.50;99.90;;;;;;5095504;27;20039;-71
2022/03/27 05:43:48;;;;;;;0.55;0.40;;;3.60;99.90;;;;;;5129584;27;20295;-72
2022/03/27 05:46:14;;;;;;;1.27;0.50;;;3.70;99.90;;;;;;5109464;27;20062;-72
2022/03/27 05:48:39;;;;;;;0.82;0.40;;;3.70;99.90;;;;;;5104643;27;20043;-72
2022/03/27 05:51:05;;;;;;;0.75;0.40;;;3.70;99.90;;;;;;5112014;27;20167;-71
2022/03/27 05:53:31;;;;;;;0.47;0.27;;;3.80;99.90;;;;;;5094257;27;20100;-71
2022/03/27 05:55:57;;;;;;;0.60;0.30;;;3.80;99.90;;;;;;5131068;27;20363;-72
2022/03/27 05:58:23;;;;;;;1.20;0.50;;;3.90;99.90;;;;;;5095087;27;20114;-72
2022/03/27 06:00:51;;;;;;;0.90;0.30;;;3.90;99.90;;;;;;5111591;27;20536;-72
2022/03/27 06:03:17;;;;;;;0.40;0.20;;;3.90;99.90;;;;;;5111915;27;20047;-72
2022/03/27 06:05:42;;;;;;;0.30;0.30;;;4.00;99.90;;;;;;5094852;28;20558;-72
2022/03/27 06:08:09;;;;;;;0.70;0.30;;;4.10;99.90;;;;;;5091236;28;20174;-72
2022/03/27 06:10:35;;;;;;;0.65;0.40;;;4.10;99.90;;;;;;5109880;28;20417;-72
2022/03/27 06:13:03;;;;;;;0.75;0.50;;;4.30;99.90;;;;;;5129262;28;20074;-71
2022/03/27 06:15:30;;;;;;;0.60;0.40;;;4.30;99.90;;;;;;5111768;28;20047;-72
2022/03/27 06:17:57;;;;;;;1.75;0.90;;;4.40;99.90;;;;;;5111986;28;20119;-72
2022/03/27 06:20:28;;;;;;;1.42;0.80;;;4.40;99.90;;;;;;5111953;28;20051;-71
2022/03/27 06:22:54;;;;;;;2.10;1.00;;;4.40;99.90;;;;;;5103154;28;20039;-71
2022/03/27 06:25:21;;;;;;;;;;;4.40;99.90;;;;;;5112774;28;20043;-71
2022/03/27 06:27:50;;;;;;;2.03;1.08;;;4.40;99.90;;;;;;5111127;28;19923;-72
2022/03/27 06:30:19;;;;;;;1.75;1.08;;;4.50;99.90;;;;;;5111899;28;20039;-71
2022/03/27 06:32:46;;;;;;;1.92;1.00;;;4.60;99.90;;;;;;5128097;28;20401;-71
2022/03/27 06:35:13;;;;;;;1.90;1.05;;;4.60;99.90;;;;;;5110049;28;20493;-72
2022/03/27 06:37:39;;;;;;;2.20;0.90;;;4.60;99.90;;;;;;5111063;28;20580;-72
2022/03/27 06:40:07;;;;;;;2.47;1.20;;;4.80;99.90;;;;;;5111388;28;20057;-70
2022/03/27 06:42:32;;;;;;;6.50;1.58;;;5.00;99.90;;;;;;5111494;28;20035;-72
2022/03/27 06:44:59;;;;;;;6.03;2.13;;;5.30;99.90;;;;;;5079247;28;20069;-70
2022/03/27 06:47:27;;;;;;;8.63;2.03;;;5.40;99.90;;;;;;5111753;28;20039;-70
2022/03/27 06:49:54;;;;;;;16.80;3.08;;;5.70;99.90;;;;;;5092153;28;20076;-69
2022/03/27 06:52:20;;;;;;;23.20;4.50;;;5.90;99.90;;;;;;5111618;28;20063;-70
2022/03/27 06:54:47;;;;;;;32.90;5.60;;;5.90;99.90;;;;;;5091388;28;20051;-69
2022/03/27 06:57:14;;;;;;;23.48;5.05;;;6.00;99.90;;;;;;5103606;28;20407;-69
2022/03/27 07:05:15;;;;;;;28.33;4.93;;;6.40;99.90;;;;;;5118692;27;20448;-70
2022/03/27 07:07:42;;;;;;;29.10;4.85;;;6.50;99.90;;;;;;5097447;27;20082;-70
2022/03/27 07:10:09;;;;;;;18.35;3.72;;;6.60;99.90;;;;;;5111290;27;20051;-69
2022/03/27 07:12:35;;;;;;;32.55;6.18;;;6.70;99.90;;;;;;5092395;27;20035;-69
2022/03/27 07:15:00;;;;;;;25.95;5.28;;;6.70;99.90;;;;;;5109982;27;20043;-67
2022/03/27 07:17:26;;;;;;;21.52;4.72;;;6.80;99.90;;;;;;5128288;27;20486;-70
2022/03/27 07:19:52;;;;;;;16.50;4.03;;;6.90;99.90;;;;;;5112285;27;20126;-71
2022/03/27 07:22:18;;;;;;;32.22;6.50;;;7.10;99.90;;;;;;5114245;27;20547;-71
2022/03/27 07:24:45;;;;;;;25.02;4.80;;;7.20;99.90;;;;;;5133852;27;20075;-70
2022/03/27 07:27:12;;;;;;;27.20;4.90;;;7.30;99.90;;;;;;5106009;27;20084;-70
2022/03/27 07:29:38;;;;;;;25.00;4.63;;;7.40;99.90;;;;;;5087066;27;20047;-70
2022/03/27 07:32:08;;;;;;;22.52;4.75;;;7.60;99.90;;;;;;5108858;27;20608;-70
2022/03/27 07:34:35;;;;;;;25.08;5.82;;;7.70;99.90;;;;;;5115167;27;20039;-70
2022/03/27 07:37:01;;;;;;;27.95;5.80;;;7.80;99.90;;;;;;5093815;27;20090;-70
2022/03/27 07:39:27;;;;;;;23.95;5.32;;;7.70;99.90;;;;;;5092153;27;20688;-70
2022/03/27 07:41:52;;;;;;;29.23;6.15;;;7.80;99.90;;;;;;5089081;27;20073;-70
2022/03/27 07:44:18;;;;;;;29.77;6.53;;;8.00;99.90;;;;;;5108509;27;20054;-70
2022/03/27 07:46:44;;;;;;;23.20;5.38;;;8.10;99.90;;;;;;5092526;27;20498;-70
2022/03/27 07:49:10;;;;;;;24.90;5.10;;;8.20;99.90;;;;;;5114738;27;20039;-70
2022/03/27 07:51:36;;;;;;;23.77;5.10;;;8.20;99.90;;;;;;5114339;27;20099;-71
2022/03/27 07:54:02;;;;;;;22.83;5.25;;;8.40;99.90;;;;;;5111304;27;20125;-70
2022/03/27 07:56:29;;;;;;;27.48;5.68;;;8.50;99.90;;;;;;5119214;27;20027;-70
2022/03/27 07:58:56;;;;;;;23.98;5.68;;;8.70;99.90;;;;;;5114781;27;20031;-70
2022/03/27 08:01:23;;;;;;;20.63;4.85;;;8.60;99.90;;;;;;5114253;27;20090;-70
2022/03/27 08:03:49;;;;;;;28.40;6.10;;;8.80;99.90;;;;;;5132983;27;20035;-71
2022/03/27 08:06:15;;;;;;;22.80;5.57;;;8.80;99.90;;;;;;5109281;27;20057;-71
2022/03/27 08:08:42;;;;;;;23.77;5.22;;;8.80;99.90;;;;;;5082203;27;20031;-71
2022/03/27 08:11:08;;;;;;;;;;;9.10;99.90;;;;;;5099919;27;20507;-72
2022/03/27 08:13:34;;;;;;;26.98;6.28;;;9.10;99.90;;;;;;5111112;27;20010;-71
2022/03/27 08:16:00;;;;;;;22.42;4.80;;;9.20;99.90;;;;;;5095742;27;20035;-70
2022/03/27 08:18:26;;;;;;;20.20;4.90;;;9.30;99.90;;;;;;5114077;27;20417;-71
2022/03/27 08:20:52;;;;;;;19.27;4.53;;;9.40;99.90;;;;;;5113732;27;20425;-71
2022/03/27 08:23:18;;;;;;;14.95;4.18;;;9.20;99.90;;;;;;5107716;27;20082;-70
2022/03/27 08:28:28;;;;;;;24.40;5.40;;;9.30;99.90;;;;;;5098920;27;20172;-70
2022/03/27 08:30:53;;;;;;;17.05;4.22;;;9.20;99.90;;;;;;5099791;27;20054;-71
2022/03/27 08:33:19;;;;;;;25.27;5.55;;;9.10;99.90;;;;;;5090796;27;20047;-71
2022/03/27 08:35:46;;;;;;;26.60;5.43;;;9.20;99.90;;;;;;5113051;27;20050;-71
2022/03/27 08:38:12;;;;;;;;;;;9.30;99.90;;;;;;5114563;27;20043;-70
2022/03/27 08:40:43;;;;;;;26.50;5.85;;;9.50;99.90;;;;;;5113888;27;20376;-71
2022/03/27 08:43:15;;;;;;;28.52;6.35;;;9.60;99.90;;;;;;5106791;27;20043;-71
2022/03/27 08:45:42;;;;;;;24.52;5.88;;;9.70;99.90;;;;;;5102239;27;20035;-71
2022/03/27 08:48:09;;;;;;;18.52;4.55;;;9.80;99.90;;;;;;5112297;27;20050;-71
2022/03/27 08:50:54;;;;;;;22.45;5.40;;;9.90;99.90;;;;;;5113037;27;20079;-70
2022/03/27 08:53:30;;;;;;;17.67;4.43;;;9.70;99.90;;;;;;5112734;27;20062;-71
2022/03/27 08:56:02;;;;;;;22.45;5.00;;;9.70;99.90;;;;;;5112078;27;20447;-71
2022/03/27 08:58:40;;;;;;;27.48;6.00;;;9.80;99.90;;;;;;5124527;27;20103;-71
2022/03/27 09:01:07;;;;;;;24.30;6.15;;;9.90;99.90;;;;;;5106345;27;20051;-70
2022/03/27 09:03:33;;;;;;;24.02;5.15;;;10.00;99.90;;;;;;5127030;27;20507;-70
2022/03/27 09:06:01;;;;;;;25.05;5.50;;;10.00;99.90;;;;;;5093768;27;20039;-71
2022/03/27 09:08:31;;;;;;;17.92;4.75;;;10.00;99.90;;;;;;5105102;28;20050;-70
2022/03/27 09:10:57;;;;;;;18.77;5.13;;;10.10;99.90;;;;;;5104502;27;20050;-70
2022/03/27 09:13:25;;;;;;;32.47;6.75;;;10.20;99.90;;;;;;5103490;27;20045;-72
2022/03/27 09:16:05;;;;;;;21.30;4.75;;;10.30;99.90;;;;;;5102987;27;20034;-71
2022/03/27 09:18:57;;;;;;;21.65;5.60;;;10.30;99.90;;;;;;5085755;27;20100;-71
2022/03/27 09:21:25;;;;;;;17.92;4.68;;;10.30;99.90;;;;;;5090888;27;20428;-70
2022/03/27 09:23:58;;;;;;;18.10;4.50;;;10.40;99.90;;;;;;5090668;27;20489;-71
2022/03/27 09:26:24;;;;;;;17.10;4.28;;;10.40;99.90;;;;;;5112576;27;20058;-72
2022/03/27 09:28:57;;;;;;;21.25;4.93;;;10.40;99.90;;;;;;5112197;27;20058;-72
2022/03/27 09:31:25;;;;;;;21.10;4.97;;;10.40;99.90;;;;;;5108513;27;20771;-72
2022/03/27 09:33:53;;;;;;;17.20;4.53;;;10.50;99.90;;;;;;5102704;27;20594;-72
2022/03/27 09:36:31;;;;;;;20.70;4.82;;;10.40;99.90;;;;;;5081640;27;20100;-73
2022/03/27 09:38:56;;;;;;;20.83;4.32;;;10.40;99.90;;;;;;5108758;27;20054;-74
2022/03/27 09:41:35;;;;;;;16.20;4.43;;;10.50;99.90;;;;;;5093264;27;20047;-73
2022/03/27 09:44:07;;;;;;;16.30;4.35;;;10.60;99.90;;;;;;5122437;27;20031;-73
2022/03/27 09:46:55;;;;;;;20.48;4.75;;;10.70;99.90;;;;;;5111687;27;20092;-73
2022/03/27 09:49:30;;;;;;;22.48;4.45;;;10.80;99.90;;;;;;5112123;27;20493;-72
2022/03/27 09:52:05;;;;;;;17.92;4.43;;;10.80;99.90;;;;;;5111349;27;20038;-72
2022/03/27 09:54:48;;;;;;;22.98;4.80;;;10.70;99.90;;;;;;5107403;28;20043;-77
2022/03/27 09:57:22;;;;;;;17.30;4.15;;;10.70;99.90;;;;;;5108102;27;20139;-77
2022/03/27 09:59:49;;;;;;;22.13;4.88;;;10.90;99.90;;;;;;5110218;27;20439;-78
2022/03/27 10:02:35;;;;;;;18.67;4.38;;;10.80;99.90;;;;;;5080675;27;20482;-76
2022/03/27 10:05:11;;;;;;;15.07;4.18;;;10.90;99.90;;;;;;5109573;28;20046;-76
2022/03/27 10:07:53;;;;;;;18.17;3.88;;;11.00;99.90;;;;;;5111139;27;20121;-74
2022/03/27 10:10:25;;;;;;;17.50;4.47;;;11.10;99.90;;;;;;5111998;28;20051;-73
2022/03/27 10:12:52;;;;;;;18.30;4.60;;;11.10;99.90;;;;;;5092455;28;20039;-73
2022/03/27 10:15:24;;;;;;;14.80;3.90;;;11.10;99.90;;;;;;5128787;28;20477;-73
2022/03/27 10:18:11;;;;;;;14.07;3.72;;;11.30;99.90;;;;;;5107616;28;20039;-73
2022/03/27 10:20:38;;;;;;;18.38;4.25;;;11.30;99.90;;;;;;5110806;28;20039;-73
2022/03/27 10:23:07;;;;;;;14.45;3.72;;;11.40;99.90;;;;;;5110950;28;20051;-74
2022/03/27 10:25:55;;;;;;;22.27;4.47;;;11.50;99.90;;;;;;5108468;28;20039;-73
2022/03/27 10:28:21;;;;;;;18.00;3.72;;;11.60;99.90;;;;;;5093734;28;20173;-73
2022/03/27 10:30:51;;;;;;;;;;;11.60;99.90;;;;;;5102923;28;20043;-73
2022/03/27 10:33:18;;;;;;;16.33;3.80;;;11.70;99.90;;;;;;5101341;28;20243;-73
2022/03/27 10:35:55;;;;;;;14.55;3.90;;;11.90;99.90;;;;;;5114510;27;20501;-73
2022/03/27 10:38:24;;;;;;;;;;;12.00;99.90;;;;;;5113280;27;20033;-73
2022/03/27 10:41:11;;;;;;;17.88;4.30;;;12.20;99.90;;;;;;5115432;27;19923;-73
2022/03/27 10:44:09;;;;;;;19.88;4.40;;;12.30;99.90;;;;;;5119169;27;20452;-73
2022/03/27 10:46:35;;;;;;;12.45;3.17;;;12.50;99.90;;;;;;5110128;27;20043;-72
2022/03/27 10:49:15;;;;;;;12.13;3.15;;;12.60;99.90;;;;;;5090553;27;20048;-71
2022/03/27 10:51:43;;;;;;;15.43;3.60;;;13.00;99.90;;;;;;5106183;27;20089;-71
2022/03/27 10:54:14;;;;;;;16.77;3.92;;;13.10;99.90;;;;;;5115287;27;20511;-72
2022/03/27 10:56:52;;;;;;;13.82;4.18;;;13.40;99.90;;;;;;5115621;27;20100;-73
2022/03/27 10:59:21;;;;;;;13.80;4.15;;;13.50;99.90;;;;;;5091527;27;20043;-72
2022/03/27 11:01:52;;;;;;;14.07;3.55;;;13.80;99.90;;;;;;5095696;27;20074;-73
2022/03/27 11:04:19;;;;;;;13.13;3.72;;;14.00;99.90;;;;;;5116501;27;20119;-72
2022/03/27 11:06:50;;;;;;;22.38;4.68;;;14.00;99.90;;;;;;5103278;27;20040;-73
2022/03/27 11:09:36;;;;;;;12.65;3.55;;;13.90;99.90;;;;;;5132991;27;20055;-73
2022/03/27 11:12:07;;;;;;;15.52;3.83;;;14.10;99.90;;;;;;5105206;27;20027;-73
2022/03/27 11:14:52;;;;;;;18.85;4.93;;;14.10;99.90;;;;;;5109292;27;20041;-72
2022/03/27 11:17:33;;;;;;;15.93;3.65;;;14.40;99.90;;;;;;5131706;27;20039;-72
2022/03/27 11:20:03;;;;;;;15.52;4.00;;;14.80;99.90;;;;;;5108713;27;20170;-73
2022/03/27 11:22:54;;;;;;;15.93;3.85;;;14.80;97.70;;;;;;5108745;27;20047;-73
2022/03/27 11:25:33;;;;;;;12.88;3.40;;;14.70;97.90;;;;;;5113558;27;20502;-72
2022/03/27 11:28:08;;;;;;;14.20;3.58;;;15.00;99.40;;;;;;5080675;28;20036;-73
2022/03/27 11:30:52;;;;;;;15.70;3.58;;;14.90;94.90;;;;;;5124832;27;20043;-72
2022/03/27 11:33:19;;;;;;;13.07;3.42;;;14.90;95.50;;;;;;5114488;27;20042;-73
2022/03/27 11:36:07;;;;;;;8.65;2.90;;;15.00;95.10;;;;;;5114935;27;20508;-73
2022/03/27 11:38:54;;;;;;;10.27;2.90;;;15.30;94.20;;;;;;5106812;27;20043;-71
2022/03/27 11:41:24;;;;;;;14.18;3.10;;;15.60;93.50;;;;;;5105092;27;20035;-72
2022/03/27 11:43:53;;;;;;;10.70;2.83;;;15.60;90.80;;;;;;5114321;27;20537;-73
2022/03/27 11:46:27;;;;;;;12.38;2.78;;;15.80;91.50;;;;;;5112856;27;20525;-73
2022/03/27 11:49:00;;;;;;;10.95;2.72;;;15.70;89.10;;;;;;5109394;27;20136;-73
2022/03/27 11:51:27;;;;;;;9.48;2.20;;;15.80;84.80;;;;;;5097771;27;20046;-73
2022/03/27 11:53:54;;;;;;;11.88;2.92;;;16.20;87.00;;;;;;5111057;27;20042;-73
2022/03/27 11:56:21;;;;;;;8.13;2.47;;;16.10;84.50;;;;;;5113892;27;20309;-72
2022/03/27 11:59:10;;;;;;;9.43;2.65;;;16.20;84.80;;;;;;5114392;27;20050;-73
2022/03/27 12:01:38;;;;;;;11.75;2.42;;;15.90;75.60;;;;;;5113687;27;20224;-73
2022/03/27 12:04:06;;;;;;;8.55;2.50;;;15.40;77.60;;;;;;5132368;27;20051;-73
2022/03/27 12:06:33;;;;;;;10.60;2.65;;;15.30;78.90;;;;;;5109331;27;20121;-73
2022/03/27 12:08:58;;;;;;;;;;;15.30;78.90;;;;;;5133250;27;20382;-72
2022/03/27 12:11:29;;;;;;;8.43;2.53;;;15.60;82.50;;;;;;5114065;27;19920;-72
2022/03/27 12:13:58;;;;;;;8.35;2.20;;;15.70;83.70;;;;;;5132081;27;20563;-72
2022/03/27 12:16:26;;;;;;;11.25;2.83;;;15.70;81.60;;;;;;5080295;27;20474;-73
2022/03/27 12:18:53;;;;;;;10.48;2.90;;;15.40;78.90;;;;;;5113858;27;20171;-72
2022/03/27 12:21:22;;;;;;;11.32;2.78;;;15.20;78.90;;;;;;5132614;27;20046;-73
2022/03/27 12:23:50;;;;;;;12.95;3.58;;;15.10;81.30;;;;;;5101629;28;20039;-72
2022/03/27 12:32:13;;;;;;;8.75;2.38;;;15.70;79.80;;;;;;5113828;27;20102;-73
2022/03/27 12:34:40;;;;;;;6.10;1.77;;;15.80;83.20;;;;;;5093837;27;20123;-74
2022/03/27 12:37:15;;;;;;;9.98;2.60;;;16.00;83.60;;;;;;5096321;27;20042;-72
2022/03/27 12:39:58;;;;;;;9.00;2.50;;;15.70;79.00;;;;;;5113366;27;20043;-72
2022/03/27 12:42:32;;;;;;;10.65;2.92;;;15.60;80.60;;;;;;5095430;27;20043;-73
2022/03/27 12:45:03;;;;;;;10.05;2.65;;;15.40;80.80;;;;;;5106008;27;20470;-73
2022/03/27 12:47:30;;;;;;;8.60;2.55;;;15.70;82.60;;;;;;5113015;27;20122;-73
2022/03/27 12:49:56;;;;;;;9.95;2.20;;;15.80;82.30;;;;;;5105391;27;20031;-73
2022/03/27 12:52:22;;;;;;;;;;;15.50;79.30;;;;;;5114347;27;20047;-72
2022/03/27 12:54:58;;;;;;;11.27;3.08;;;15.60;81.00;;;;;;5113385;27;20339;-73
2022/03/27 12:57:25;;;;;;;9.85;2.88;;;15.50;80.80;;;;;;5112279;27;20051;-73
2022/03/27 12:59:52;;;;;;;10.05;2.55;;;15.60;83.00;;;;;;5113641;27;20111;-73
2022/03/27 13:02:28;;;;;;;10.02;2.83;;;15.50;80.70;;;;;;5093067;28;20127;-73
2022/03/27 13:05:00;;;;;;;8.32;2.28;;;15.50;81.30;;;;;;5105213;27;20043;-73
2022/03/27 13:08:01;;;;;;;10.60;2.72;;;15.50;82.70;;;;;;5105454;27;20039;-72
2022/03/27 13:10:28;;;;;;;10.30;2.85;;;15.50;83.80;;;;;;5030517;28;20512;-73
2022/03/27 13:13:05;;;;;;;9.60;2.63;;;15.60;83.80;;;;;;5100503;27;20039;-74
2022/03/27 13:15:52;;;;;;;12.63;3.38;;;15.80;82.70;;;;;;5106567;27;20031;-73